sensor_id;sensor_type;location;lat;lon;timestamp;pressure;altitude;pressure_sealevel;temperature;humidity
7182;BME280;3632;42.724;23.298;2024-02-23T00:00:27;95127.19;;;8.00;69.74
7182;BME280;3632;42.724;23.298;2024-02-23T00:02:54;95129.91;;;8.10;69.88
7182;BME280;3632;42.724;23.298;2024-02-23T00:05:23;95126.88;;;8.05;70.29
7182;BME280;3632;42.724;23.298;2024-02-23T00:07:49;95133.06;;;8.24;70.23
7182;BME280;3632;42.724;23.298;2024-02-23T00:10:16;95129.53;;;8.03;70.53
7182;BME280;3632;42.724;23.298;2024-02-23T00:12:43;95128.38;;;7.84;70.82
7182;BME280;3632;42.724;23.298;2024-02-23T00:15:10;95052.66;;;7.66;70.72
7182;BME280;3632;42.724;23.298;2024-02-23T00:17:37;95130.16;;;8.31;70.49
7182;BME280;3632;42.724;23.298;2024-02-23T00:20:05;95153.56;;;8.10;70.28
7182;BME280;3632;42.724;23.298;2024-02-23T00:22:34;95127.19;;;7.76;70.62
7182;BME280;3632;42.724;23.298;2024-02-23T00:25:00;95112.25;;;7.85;70.46
7182;BME280;3632;42.724;23.298;2024-02-23T00:27:27;95062.59;;;7.93;69.97
7182;BME280;3632;42.724;23.298;2024-02-23T00:29:54;94638.84;;;5.53;69.16
7182;BME280;3632;42.724;23.298;2024-02-23T00:32:20;95108.53;;;8.60;68.73
7182;BME280;3632;42.724;23.298;2024-02-23T00:34:47;95091.75;;;8.46;67.95
7182;BME280;3632;42.724;23.298;2024-02-23T00:37:14;95112.50;;;8.40;67.97
7182;BME280;3632;42.724;23.298;2024-02-23T00:39:42;95115.50;;;8.10;68.78
7182;BME280;3632;42.724;23.298;2024-02-23T00:42:09;95096.22;;;8.19;69.58
7182;BME280;3632;42.724;23.298;2024-02-23T00:44:35;95101.91;;;8.46;68.70
7182;BME280;3632;42.724;23.298;2024-02-23T00:47:03;95101.81;;;8.59;68.07
7182;BME280;3632;42.724;23.298;2024-02-23T00:49:30;95039.97;;;7.66;68.69
7182;BME280;3632;42.724;23.298;2024-02-23T00:51:56;95099.66;;;8.07;69.57
7182;BME280;3632;42.724;23.298;2024-02-23T00:54:23;95104.28;;;8.02;69.67
7182;BME280;3632;42.724;23.298;2024-02-23T00:56:51;95102.44;;;7.80;71.07
7182;BME280;3632;42.724;23.298;2024-02-23T00:59:18;95090.16;;;7.98;70.32
7182;BME280;3632;42.724;23.298;2024-02-23T01:01:45;95099.06;;;8.27;69.69
7182;BME280;3632;42.724;23.298;2024-02-23T01:04:11;95059.59;;;8.23;69.16
7182;BME280;3632;42.724;23.298;2024-02-23T01:06:38;95078.84;;;8.60;68.15
7182;BME280;3632;42.724;23.298;2024-02-23T01:09:05;95099.94;;;8.50;68.06
7182;BME280;3632;42.724;23.298;2024-02-23T01:11:32;94817.56;;;6.15;67.98
7182;BME280;3632;42.724;23.298;2024-02-23T01:14:00;95091.72;;;8.11;69.37
7182;BME280;3632;42.724;23.298;2024-02-23T01:16:27;95092.41;;;7.90;70.33
7182;BME280;3632;42.724;23.298;2024-02-23T01:18:53;95029.00;;;7.90;69.89
7182;BME280;3632;42.724;23.298;2024-02-23T01:21:20;95096.22;;;8.19;70.08
7182;BME280;3632;42.724;23.298;2024-02-23T01:23:47;95075.53;;;8.36;69.08
7182;BME280;3632;42.724;23.298;2024-02-23T01:26:14;95068.06;;;8.11;69.22
7182;BME280;3632;42.724;23.298;2024-02-23T01:28:40;95078.59;;;7.94;69.57
7182;BME280;3632;42.724;23.298;2024-02-23T01:31:09;95075.38;;;7.92;70.16
7182;BME280;3632;42.724;23.298;2024-02-23T01:33:37;95054.59;;;7.87;70.59
7182;BME280;3632;42.724;23.298;2024-02-23T01:36:04;95048.88;;;7.96;70.78
7182;BME280;3632;42.724;23.298;2024-02-23T01:38:31;95051.25;;;8.21;71.02
7182;BME280;3632;42.724;23.298;2024-02-23T01:40:58;95058.00;;;8.33;69.94
7182;BME280;3632;42.724;23.298;2024-02-23T01:43:25;95061.13;;;8.37;70.29
7182;BME280;3632;42.724;23.298;2024-02-23T01:45:52;95056.09;;;8.48;69.15
7182;BME280;3632;42.724;23.298;2024-02-23T01:48:20;95055.75;;;8.52;69.29
7182;BME280;3632;42.724;23.298;2024-02-23T01:50:48;95050.91;;;8.14;69.84
7182;BME280;3632;42.724;23.298;2024-02-23T01:53:15;94966.22;;;7.46;70.59
7182;BME280;3632;42.724;23.298;2024-02-23T01:55:45;95020.31;;;7.81;70.99
7182;BME280;3632;42.724;23.298;2024-02-23T01:58:12;95048.63;;;8.22;69.97
7182;BME280;3632;42.724;23.298;2024-02-23T02:00:39;95044.13;;;8.26;69.68
7182;BME280;3632;42.724;23.298;2024-02-23T02:03:06;95052.28;;;7.84;71.21
7182;BME280;3632;42.724;23.298;2024-02-23T02:05:35;95055.88;;;7.68;71.38
7182;BME280;3632;42.724;23.298;2024-02-23T02:08:02;95045.16;;;7.65;71.97
7182;BME280;3632;42.724;23.298;2024-02-23T02:10:29;95037.56;;;8.00;71.05
7182;BME280;3632;42.724;23.298;2024-02-23T02:13:01;95056.25;;;7.51;73.49
7182;BME280;3632;42.724;23.298;2024-02-23T02:15:28;95040.72;;;7.79;73.21
7182;BME280;3632;42.724;23.298;2024-02-23T02:17:55;95040.09;;;7.89;72.46
7182;BME280;3632;42.724;23.298;2024-02-23T02:20:24;94990.41;;;7.02;74.18
7182;BME280;3632;42.724;23.298;2024-02-23T02:22:52;95052.88;;;7.63;73.68
7182;BME280;3632;42.724;23.298;2024-02-23T02:25:19;95047.19;;;7.84;72.33
7182;BME280;3632;42.724;23.298;2024-02-23T02:27:46;95043.19;;;7.68;72.51
7182;BME280;3632;42.724;23.298;2024-02-23T02:30:13;95031.25;;;7.81;72.94
7182;BME280;3632;42.724;23.298;2024-02-23T02:32:40;94884.25;;;7.10;72.59
7182;BME280;3632;42.724;23.298;2024-02-23T02:35:07;94993.41;;;7.44;73.67
7182;BME280;3632;42.724;23.298;2024-02-23T02:37:34;95037.81;;;7.97;73.24
7182;BME280;3632;42.724;23.298;2024-02-23T02:40:03;95043.06;;;8.17;72.89
7182;BME280;3632;42.724;23.298;2024-02-23T02:42:30;94954.25;;;7.24;73.62
7182;BME280;3632;42.724;23.298;2024-02-23T02:44:56;95039.44;;;7.50;75.52
7182;BME280;3632;42.724;23.298;2024-02-23T02:47:23;95047.09;;;7.38;75.83
7182;BME280;3632;42.724;23.298;2024-02-23T02:49:50;95043.50;;;7.40;76.50
7182;BME280;3632;42.724;23.298;2024-02-23T02:52:17;95050.25;;;7.52;76.11
7182;BME280;3632;42.724;23.298;2024-02-23T02:54:44;95043.38;;;7.18;77.96
7182;BME280;3632;42.724;23.298;2024-02-23T02:57:14;95048.41;;;7.30;77.34
7182;BME280;3632;42.724;23.298;2024-02-23T02:59:40;95048.00;;;7.37;76.93
7182;BME280;3632;42.724;23.298;2024-02-23T03:02:07;95004.03;;;7.25;77.06
7182;BME280;3632;42.724;23.298;2024-02-23T03:04:34;95057.28;;;7.72;76.41
7182;BME280;3632;42.724;23.298;2024-02-23T03:07:01;95061.75;;;7.45;77.51
7182;BME280;3632;42.724;23.298;2024-02-23T03:09:27;95048.72;;;7.62;77.62
7182;BME280;3632;42.724;23.298;2024-02-23T03:11:54;95036.69;;;7.53;76.90
7182;BME280;3632;42.724;23.298;2024-02-23T03:14:22;95056.09;;;7.42;78.73
7182;BME280;3632;42.724;23.298;2024-02-23T03:16:49;95004.41;;;6.95;79.40
7182;BME280;3632;42.724;23.298;2024-02-23T03:19:15;95054.66;;;7.50;79.12
7182;BME280;3632;42.724;23.298;2024-02-23T03:21:45;94855.19;;;6.32;78.80
7182;BME280;3632;42.724;23.298;2024-02-23T03:24:11;95065.25;;;7.68;77.83
7182;BME280;3632;42.724;23.298;2024-02-23T03:26:38;95055.72;;;7.82;75.81
7182;BME280;3632;42.724;23.298;2024-02-23T03:29:05;95041.38;;;7.70;75.71
7182;BME280;3632;42.724;23.298;2024-02-23T03:31:33;94988.19;;;7.34;75.21
7182;BME280;3632;42.724;23.298;2024-02-23T03:33:59;95063.66;;;7.78;75.08
7182;BME280;3632;42.724;23.298;2024-02-23T03:36:26;94925.16;;;6.69;76.17
7182;BME280;3632;42.724;23.298;2024-02-23T03:38:53;95051.22;;;7.39;76.63
7182;BME280;3632;42.724;23.298;2024-02-23T03:41:19;95048.13;;;7.22;78.11
7182;BME280;3632;42.724;23.298;2024-02-23T03:43:46;95039.84;;;7.44;77.66
7182;BME280;3632;42.724;23.298;2024-02-23T03:46:13;95043.59;;;7.75;76.37
7182;BME280;3632;42.724;23.298;2024-02-23T03:48:41;95056.69;;;7.45;77.83
7182;BME280;3632;42.724;23.298;2024-02-23T03:51:08;95058.31;;;7.70;76.16
7182;BME280;3632;42.724;23.298;2024-02-23T03:53:35;95079.16;;;7.62;75.96
7182;BME280;3632;42.724;23.298;2024-02-23T03:56:02;95048.28;;;7.68;75.96
7182;BME280;3632;42.724;23.298;2024-02-23T03:58:29;95043.03;;;7.82;75.79
7182;BME280;3632;42.724;23.298;2024-02-23T04:00:55;95055.91;;;8.03;75.07
7182;BME280;3632;42.724;23.298;2024-02-23T04:03:22;95056.84;;;8.02;74.35
7182;BME280;3632;42.724;23.298;2024-02-23T04:05:50;95009.91;;;7.25;75.40
7182;BME280;3632;42.724;23.298;2024-02-23T04:08:17;95056.69;;;7.45;76.97
7182;BME280;3632;42.724;23.298;2024-02-23T04:10:44;95053.16;;;7.71;75.62
7182;BME280;3632;42.724;23.298;2024-02-23T04:13:10;95065.94;;;7.70;75.68
7182;BME280;3632;42.724;23.298;2024-02-23T04:15:39;95053.84;;;7.73;75.99
7182;BME280;3632;42.724;23.298;2024-02-23T04:18:05;95085.19;;;7.49;76.63
7182;BME280;3632;42.724;23.298;2024-02-23T04:20:32;95060.75;;;7.35;77.78
7182;BME280;3632;42.724;23.298;2024-02-23T04:23:00;94780.75;;;5.60;77.58
7182;BME280;3632;42.724;23.298;2024-02-23T04:25:27;95065.91;;;7.10;79.66
7182;BME280;3632;42.724;23.298;2024-02-23T04:27:54;95067.31;;;7.01;80.35
7182;BME280;3632;42.724;23.298;2024-02-23T04:30:20;95060.25;;;7.30;79.24
7182;BME280;3632;42.724;23.298;2024-02-23T04:32:47;94972.47;;;6.43;79.31
7182;BME280;3632;42.724;23.298;2024-02-23T04:35:14;95058.22;;;7.35;79.41
7182;BME280;3632;42.724;23.298;2024-02-23T04:37:43;95059.91;;;7.47;78.93
7182;BME280;3632;42.724;23.298;2024-02-23T04:40:12;95061.25;;;7.40;78.60
7182;BME280;3632;42.724;23.298;2024-02-23T04:42:38;95080.44;;;7.31;79.59
7182;BME280;3632;42.724;23.298;2024-02-23T04:45:07;95067.91;;;7.05;79.73
7182;BME280;3632;42.724;23.298;2024-02-23T04:47:33;95061.84;;;7.20;81.35
7182;BME280;3632;42.724;23.298;2024-02-23T04:50:00;94952.28;;;6.67;80.72
7182;BME280;3632;42.724;23.298;2024-02-23T04:52:28;95060.94;;;7.45;80.21
7182;BME280;3632;42.724;23.298;2024-02-23T04:54:55;95029.81;;;7.06;80.84
7182;BME280;3632;42.724;23.298;2024-02-23T04:57:23;95080.00;;;7.50;80.43
7182;BME280;3632;42.724;23.298;2024-02-23T04:59:50;94951.25;;;6.82;79.52
7182;BME280;3632;42.724;23.298;2024-02-23T05:02:17;95000.56;;;7.26;79.69
7182;BME280;3632;42.724;23.298;2024-02-23T05:04:44;95076.44;;;7.53;79.99
7182;BME280;3632;42.724;23.298;2024-02-23T05:07:11;95095.00;;;7.17;80.47
7182;BME280;3632;42.724;23.298;2024-02-23T05:09:38;95055.09;;;6.95;82.26
7182;BME280;3632;42.724;23.298;2024-02-23T05:12:06;95079.28;;;7.12;81.15
7182;BME280;3632;42.724;23.298;2024-02-23T05:14:35;95090.63;;;7.06;81.96
7182;BME280;3632;42.724;23.298;2024-02-23T05:17:01;95089.31;;;7.13;81.27
7182;BME280;3632;42.724;23.298;2024-02-23T05:19:28;95079.25;;;7.24;81.21
7182;BME280;3632;42.724;23.298;2024-02-23T05:21:55;95084.88;;;7.04;80.83
7182;BME280;3632;42.724;23.298;2024-02-23T05:24:22;95098.16;;;7.08;81.36
7182;BME280;3632;42.724;23.298;2024-02-23T05:26:48;95109.81;;;6.72;82.75
7182;BME280;3632;42.724;23.298;2024-02-23T05:29:15;95007.31;;;6.15;81.42
7182;BME280;3632;42.724;23.298;2024-02-23T05:31:48;95106.44;;;7.10;80.57
7182;BME280;3632;42.724;23.298;2024-02-23T05:34:15;95115.97;;;6.94;80.60
7182;BME280;3632;42.724;23.298;2024-02-23T05:36:42;95087.22;;;6.95;79.86
7182;BME280;3632;42.724;23.298;2024-02-23T05:39:09;95032.81;;;6.62;79.91
7182;BME280;3632;42.724;23.298;2024-02-23T05:41:36;95084.34;;;7.12;80.01
7182;BME280;3632;42.724;23.298;2024-02-23T05:44:03;95095.09;;;7.03;79.50
7182;BME280;3632;42.724;23.298;2024-02-23T05:46:31;95109.59;;;6.88;79.76
7182;BME280;3632;42.724;23.298;2024-02-23T05:49:00;95112.09;;;7.13;79.29
7182;BME280;3632;42.724;23.298;2024-02-23T05:51:27;95104.38;;;7.27;78.19
7182;BME280;3632;42.724;23.298;2024-02-23T05:53:54;95108.09;;;7.47;77.44
7182;BME280;3632;42.724;23.298;2024-02-23T05:56:21;95072.81;;;6.95;78.24
7182;BME280;3632;42.724;23.298;2024-02-23T05:58:49;95110.63;;;7.47;77.58
7182;BME280;3632;42.724;23.298;2024-02-23T06:01:15;95123.47;;;7.20;78.26
7182;BME280;3632;42.724;23.298;2024-02-23T06:03:42;95118.78;;;7.27;78.15
7182;BME280;3632;42.724;23.298;2024-02-23T06:06:11;95117.03;;;7.40;77.04
7182;BME280;3632;42.724;23.298;2024-02-23T06:08:38;95120.59;;;7.50;77.34
7182;BME280;3632;42.724;23.298;2024-02-23T06:11:05;95107.09;;;7.50;77.14
7182;BME280;3632;42.724;23.298;2024-02-23T06:13:32;95144.41;;;7.48;77.02
7182;BME280;3632;42.724;23.298;2024-02-23T06:15:59;95129.03;;;7.38;76.86
7182;BME280;3632;42.724;23.298;2024-02-23T06:18:26;95124.44;;;7.79;76.74
7182;BME280;3632;42.724;23.298;2024-02-23T06:20:52;95128.56;;;7.93;75.87
7182;BME280;3632;42.724;23.298;2024-02-23T06:23:20;95124.75;;;7.75;75.17
7182;BME280;3632;42.724;23.298;2024-02-23T06:25:48;95128.66;;;7.92;75.56
7182;BME280;3632;42.724;23.298;2024-02-23T06:28:15;95145.16;;;7.73;75.64
7182;BME280;3632;42.724;23.298;2024-02-23T06:30:42;95125.63;;;7.63;75.68
7182;BME280;3632;42.724;23.298;2024-02-23T06:33:09;95132.50;;;7.61;75.99
7182;BME280;3632;42.724;23.298;2024-02-23T06:35:35;95121.53;;;7.60;75.19
7182;BME280;3632;42.724;23.298;2024-02-23T06:38:02;95122.84;;;7.42;76.97
7182;BME280;3632;42.724;23.298;2024-02-23T06:40:32;95134.72;;;7.16;78.47
7182;BME280;3632;42.724;23.298;2024-02-23T06:42:59;95124.09;;;6.99;79.04
7182;BME280;3632;42.724;23.298;2024-02-23T06:45:26;95090.56;;;6.82;79.19
7182;BME280;3632;42.724;23.298;2024-02-23T06:47:52;95133.13;;;7.52;78.15
7182;BME280;3632;42.724;23.298;2024-02-23T06:50:19;95141.53;;;7.65;76.44
7182;BME280;3632;42.724;23.298;2024-02-23T06:52:47;95147.78;;;7.23;77.48
7182;BME280;3632;42.724;23.298;2024-02-23T06:55:15;95147.78;;;7.10;78.40
7182;BME280;3632;42.724;23.298;2024-02-23T06:57:43;95141.72;;;7.25;78.95
7182;BME280;3632;42.724;23.298;2024-02-23T07:00:11;94962.66;;;6.26;78.10
7182;BME280;3632;42.724;23.298;2024-02-23T07:02:38;95152.69;;;7.99;77.24
7182;BME280;3632;42.724;23.298;2024-02-23T07:05:05;95099.88;;;8.04;74.86
7182;BME280;3632;42.724;23.298;2024-02-23T07:07:32;95132.50;;;7.61;75.97
7182;BME280;3632;42.724;23.298;2024-02-23T07:09:59;95143.63;;;7.84;79.97
7182;BME280;3632;42.724;23.298;2024-02-23T07:12:25;95125.25;;;8.04;79.93
7182;BME280;3632;42.724;23.298;2024-02-23T07:14:54;95077.22;;;8.48;81.58
7182;BME280;3632;42.724;23.298;2024-02-23T07:17:21;95065.03;;;8.87;74.92
7182;BME280;3632;42.724;23.298;2024-02-23T07:19:48;95135.84;;;10.55;72.92
7182;BME280;3632;42.724;23.298;2024-02-23T07:22:16;95133.69;;;9.20;70.90
7182;BME280;3632;42.724;23.298;2024-02-23T07:24:43;95129.25;;;9.00;73.18
7182;BME280;3632;42.724;23.298;2024-02-23T07:27:10;95137.34;;;8.94;73.73
7182;BME280;3632;42.724;23.298;2024-02-23T07:29:37;95138.13;;;8.72;73.72
7182;BME280;3632;42.724;23.298;2024-02-23T07:32:05;95136.78;;;8.90;72.74
7182;BME280;3632;42.724;23.298;2024-02-23T07:34:32;95131.56;;;9.25;73.97
7182;BME280;3632;42.724;23.298;2024-02-23T07:36:59;95131.84;;;9.33;70.82
7182;BME280;3632;42.724;23.298;2024-02-23T07:39:25;95080.22;;;8.53;73.57
7182;BME280;3632;42.724;23.298;2024-02-23T07:41:52;95064.38;;;8.15;76.44
7182;BME280;3632;42.724;23.298;2024-02-23T07:44:19;95121.81;;;8.75;77.14
7182;BME280;3632;42.724;23.298;2024-02-23T07:46:46;95128.81;;;8.95;76.96
7182;BME280;3632;42.724;23.298;2024-02-23T07:49:14;95126.28;;;9.50;75.39
7182;BME280;3632;42.724;23.298;2024-02-23T07:51:40;95147.88;;;9.34;74.10
7182;BME280;3632;42.724;23.298;2024-02-23T07:54:07;95135.16;;;9.00;75.29
7182;BME280;3632;42.724;23.298;2024-02-23T07:56:34;94989.44;;;8.33;76.35
7182;BME280;3632;42.724;23.298;2024-02-23T07:58:59;94956.88;;;8.27;76.27
7182;BME280;3632;42.724;23.298;2024-02-23T08:01:28;95131.53;;;9.92;74.50
7182;BME280;3632;42.724;23.298;2024-02-23T08:03:55;95121.91;;;10.38;72.45
7182;BME280;3632;42.724;23.298;2024-02-23T08:06:23;95123.72;;;10.89;74.56
7182;BME280;3632;42.724;23.298;2024-02-23T08:08:51;95133.41;;;10.95;70.73
7182;BME280;3632;42.724;23.298;2024-02-23T08:11:19;95052.78;;;11.04;68.91
7182;BME280;3632;42.724;23.298;2024-02-23T08:13:45;95090.69;;;11.48;67.65
7182;BME280;3632;42.724;23.298;2024-02-23T08:16:12;95113.41;;;11.91;66.97
7182;BME280;3632;42.724;23.298;2024-02-23T08:18:39;95120.41;;;12.08;66.64
7182;BME280;3632;42.724;23.298;2024-02-23T08:21:06;95053.19;;;12.08;64.79
7182;BME280;3632;42.724;23.298;2024-02-23T08:23:34;95079.41;;;12.29;67.23
7182;BME280;3632;42.724;23.298;2024-02-23T08:26:01;95049.97;;;12.25;62.72
7182;BME280;3632;42.724;23.298;2024-02-23T08:28:28;95122.41;;;12.91;62.12
7182;BME280;3632;42.724;23.298;2024-02-23T08:30:54;95108.19;;;13.25;61.41
7182;BME280;3632;42.724;23.298;2024-02-23T08:33:21;95110.94;;;13.14;59.51
7182;BME280;3632;42.724;23.298;2024-02-23T08:35:48;94996.13;;;12.46;58.35
7182;BME280;3632;42.724;23.298;2024-02-23T08:38:15;95102.63;;;13.40;58.57
7182;BME280;3632;42.724;23.298;2024-02-23T08:40:43;95095.22;;;13.64;58.80
7182;BME280;3632;42.724;23.298;2024-02-23T08:43:10;95106.72;;;13.87;58.24
7182;BME280;3632;42.724;23.298;2024-02-23T08:45:37;95103.00;;;13.72;57.99
7182;BME280;3632;42.724;23.298;2024-02-23T08:48:04;95098.94;;;13.97;56.94
7182;BME280;3632;42.724;23.298;2024-02-23T08:50:32;95090.03;;;14.18;55.38
7182;BME280;3632;42.724;23.298;2024-02-23T08:52:59;95100.00;;;14.39;54.82
7182;BME280;3632;42.724;23.298;2024-02-23T08:55:26;95097.03;;;15.13;61.17
7182;BME280;3632;42.724;23.298;2024-02-23T08:57:55;94971.19;;;14.97;61.01
7182;BME280;3632;42.724;23.298;2024-02-23T09:00:25;95095.69;;;16.27;61.36
7182;BME280;3632;42.724;23.298;2024-02-23T09:02:52;95089.97;;;16.57;56.22
7182;BME280;3632;42.724;23.298;2024-02-23T09:05:19;95079.28;;;16.12;55.96
7182;BME280;3632;42.724;23.298;2024-02-23T09:07:50;95067.88;;;16.06;52.02
7182;BME280;3632;42.724;23.298;2024-02-23T09:10:19;95087.63;;;16.06;52.09
7182;BME280;3632;42.724;23.298;2024-02-23T09:12:47;95080.38;;;16.01;52.10
7182;BME280;3632;42.724;23.298;2024-02-23T09:15:17;95057.06;;;15.78;53.29
7182;BME280;3632;42.724;23.298;2024-02-23T09:17:44;95044.03;;;15.88;51.47
7182;BME280;3632;42.724;23.298;2024-02-23T09:20:15;95084.56;;;15.94;53.55
7182;BME280;3632;42.724;23.298;2024-02-23T09:22:43;95084.72;;;16.00;53.91
7182;BME280;3632;42.724;23.298;2024-02-23T09:25:09;95091.09;;;16.63;58.42
7182;BME280;3632;42.724;23.298;2024-02-23T09:27:36;95082.34;;;16.56;52.98
7182;BME280;3632;42.724;23.298;2024-02-23T09:30:10;95081.09;;;17.55;56.18
7182;BME280;3632;42.724;23.298;2024-02-23T09:32:38;95081.38;;;17.13;48.17
7182;BME280;3632;42.724;23.298;2024-02-23T09:35:05;95077.13;;;17.28;48.38
7182;BME280;3632;42.724;23.298;2024-02-23T09:37:32;95079.56;;;17.30;48.46
7182;BME280;3632;42.724;23.298;2024-02-23T09:39:59;95080.44;;;17.61;48.35
7182;BME280;3632;42.724;23.298;2024-02-23T09:42:28;95081.16;;;17.86;48.39
7182;BME280;3632;42.724;23.298;2024-02-23T09:44:58;95080.28;;;17.94;46.74
7182;BME280;3632;42.724;23.298;2024-02-23T09:47:26;95075.94;;;17.94;50.26
7182;BME280;3632;42.724;23.298;2024-02-23T09:49:55;95074.69;;;17.90;46.54
7182;BME280;3632;42.724;23.298;2024-02-23T09:52:22;95016.69;;;17.86;49.37
7182;BME280;3632;42.724;23.298;2024-02-23T09:54:49;95066.84;;;18.29;46.38
7182;BME280;3632;42.724;23.298;2024-02-23T09:57:16;95036.50;;;18.08;46.42
7182;BME280;3632;42.724;23.298;2024-02-23T09:59:44;95067.84;;;17.97;47.04
7182;BME280;3632;42.724;23.298;2024-02-23T10:02:15;95069.25;;;17.30;46.38
7182;BME280;3632;42.724;23.298;2024-02-23T10:04:43;95055.53;;;16.82;47.24
7182;BME280;3632;42.724;23.298;2024-02-23T10:07:14;95068.41;;;16.58;48.39
7182;BME280;3632;42.724;23.298;2024-02-23T10:09:40;95054.09;;;16.80;48.12
7182;BME280;3632;42.724;23.298;2024-02-23T10:12:08;95029.66;;;16.76;46.80
7182;BME280;3632;42.724;23.298;2024-02-23T10:14:35;95015.00;;;16.36;46.51
7182;BME280;3632;42.724;23.298;2024-02-23T10:17:01;95064.84;;;16.27;47.43
7182;BME280;3632;42.724;23.298;2024-02-23T10:19:28;95058.72;;;16.52;47.48
7182;BME280;3632;42.724;23.298;2024-02-23T10:21:55;95060.75;;;17.21;46.18
7182;BME280;3632;42.724;23.298;2024-02-23T10:24:24;95002.44;;;17.67;45.23
7182;BME280;3632;42.724;23.298;2024-02-23T10:26:51;95028.50;;;18.26;43.65
7182;BME280;3632;42.724;23.298;2024-02-23T10:29:18;94960.03;;;17.08;44.85
7182;BME280;3632;42.724;23.298;2024-02-23T10:31:46;95064.06;;;17.85;44.91
7182;BME280;3632;42.724;23.298;2024-02-23T10:34:17;95033.69;;;17.72;45.28
7182;BME280;3632;42.724;23.298;2024-02-23T10:36:45;94933.09;;;17.80;44.05
7182;BME280;3632;42.724;23.298;2024-02-23T10:39:17;95029.72;;;18.76;42.48
7182;BME280;3632;42.724;23.298;2024-02-23T10:41:56;95013.63;;;19.32;42.15
7182;BME280;3632;42.724;23.298;2024-02-23T10:44:24;95015.06;;;19.85;42.22
7182;BME280;3632;42.724;23.298;2024-02-23T10:46:53;94921.34;;;18.97;40.88
7182;BME280;3632;42.724;23.298;2024-02-23T10:49:23;94995.13;;;20.22;40.54
7182;BME280;3632;42.724;23.298;2024-02-23T10:51:52;94995.75;;;20.73;39.55
7182;BME280;3632;42.724;23.298;2024-02-23T10:54:19;95024.13;;;19.96;39.37
7182;BME280;3632;42.724;23.298;2024-02-23T10:56:50;95003.00;;;19.56;40.63
7182;BME280;3632;42.724;23.298;2024-02-23T10:59:17;94994.41;;;19.71;40.75
7182;BME280;3632;42.724;23.298;2024-02-23T11:01:44;94962.03;;;20.17;39.40
7182;BME280;3632;42.724;23.298;2024-02-23T11:04:13;94996.16;;;19.85;40.47
7182;BME280;3632;42.724;23.298;2024-02-23T11:06:40;94950.28;;;19.72;39.42
7182;BME280;3632;42.724;23.298;2024-02-23T11:09:08;94986.81;;;20.26;38.63
7182;BME280;3632;42.724;23.298;2024-02-23T11:11:36;94985.56;;;19.80;39.58
7182;BME280;3632;42.724;23.298;2024-02-23T11:14:07;94660.56;;;17.08;40.01
7182;BME280;3632;42.724;23.298;2024-02-23T11:16:38;94980.88;;;19.69;40.27
7182;BME280;3632;42.724;23.298;2024-02-23T11:19:06;94976.84;;;20.23;39.13
7182;BME280;3632;42.724;23.298;2024-02-23T11:21:35;94952.22;;;20.55;38.04
7182;BME280;3632;42.724;23.298;2024-02-23T11:24:03;94934.09;;;19.64;39.04
7182;BME280;3632;42.724;23.298;2024-02-23T11:26:30;94955.38;;;19.87;39.12
7182;BME280;3632;42.724;23.298;2024-02-23T11:28:58;94951.94;;;20.43;38.01
7182;BME280;3632;42.724;23.298;2024-02-23T11:31:30;94957.66;;;21.35;37.76
7182;BME280;3632;42.724;23.298;2024-02-23T11:33:57;94928.00;;;21.51;36.21
7182;BME280;3632;42.724;23.298;2024-02-23T11:36:28;94935.03;;;21.77;36.13
7182;BME280;3632;42.724;23.298;2024-02-23T11:38:56;94946.19;;;23.15;37.81
7182;BME280;3632;42.724;23.298;2024-02-23T11:41:23;94944.31;;;22.71;34.53
7182;BME280;3632;42.724;23.298;2024-02-23T11:43:50;94883.16;;;21.64;34.26
7182;BME280;3632;42.724;23.298;2024-02-23T11:46:17;94929.13;;;21.96;34.84
7182;BME280;3632;42.724;23.298;2024-02-23T11:48:46;94935.66;;;21.72;34.91
7182;BME280;3632;42.724;23.298;2024-02-23T11:51:19;94946.16;;;21.58;35.01
7182;BME280;3632;42.724;23.298;2024-02-23T11:53:46;94902.41;;;21.35;36.01
7182;BME280;3632;42.724;23.298;2024-02-23T11:56:13;94937.31;;;22.19;35.02
7182;BME280;3632;42.724;23.298;2024-02-23T11:58:40;94807.03;;;20.57;35.10
7182;BME280;3632;42.724;23.298;2024-02-23T12:01:07;94927.88;;;21.72;35.35
7182;BME280;3632;42.724;23.298;2024-02-23T12:03:34;94917.47;;;21.66;35.84
7182;BME280;3632;42.724;23.298;2024-02-23T12:06:02;94909.16;;;22.16;34.79
7182;BME280;3632;42.724;23.298;2024-02-23T12:08:30;94915.16;;;22.30;34.16
7182;BME280;3632;42.724;23.298;2024-02-23T12:11:03;94915.03;;;23.02;33.63
7182;BME280;3632;42.724;23.298;2024-02-23T12:13:30;94939.78;;;23.25;32.79
7182;BME280;3632;42.724;23.298;2024-02-23T12:15:57;94909.19;;;23.20;33.25
7182;BME280;3632;42.724;23.298;2024-02-23T12:18:24;94918.72;;;22.75;32.92
7182;BME280;3632;42.724;23.298;2024-02-23T12:20:52;94903.25;;;21.49;34.67
7182;BME280;3632;42.724;23.298;2024-02-23T12:23:20;94914.34;;;21.23;35.17
7182;BME280;3632;42.724;23.298;2024-02-23T12:25:54;94914.41;;;21.02;35.74
7182;BME280;3632;42.724;23.298;2024-02-23T12:28:21;94904.69;;;21.58;34.74
7182;BME280;3632;42.724;23.298;2024-02-23T12:30:59;94925.66;;;20.46;35.84
7182;BME280;3632;42.724;23.298;2024-02-23T12:33:27;94902.16;;;19.99;37.29
7182;BME280;3632;42.724;23.298;2024-02-23T12:35:55;94894.31;;;19.65;37.62
7182;BME280;3632;42.724;23.298;2024-02-23T12:38:24;94850.81;;;19.96;37.42
7182;BME280;3632;42.724;23.298;2024-02-23T12:40:51;94900.34;;;20.42;37.33
7182;BME280;3632;42.724;23.298;2024-02-23T12:43:18;94897.75;;;19.50;37.64
7182;BME280;3632;42.724;23.298;2024-02-23T12:45:46;94897.22;;;19.76;38.09
7182;BME280;3632;42.724;23.298;2024-02-23T12:48:14;94884.88;;;20.27;36.40
7182;BME280;3632;42.724;23.298;2024-02-23T12:50:41;94868.00;;;21.00;35.54
7182;BME280;3632;42.724;23.298;2024-02-23T12:53:11;94873.88;;;21.28;35.41
7182;BME280;3632;42.724;23.298;2024-02-23T12:55:57;94877.34;;;21.01;35.40
7182;BME280;3632;42.724;23.298;2024-02-23T12:58:24;94836.13;;;20.03;35.94
7182;BME280;3632;42.724;23.298;2024-02-23T13:00:51;94893.50;;;19.43;37.12
7182;BME280;3632;42.724;23.298;2024-02-23T13:03:18;94875.00;;;19.25;38.79
7182;BME280;3632;42.724;23.298;2024-02-23T13:05:44;94880.63;;;19.49;38.10
7182;BME280;3632;42.724;23.298;2024-02-23T13:08:12;94870.13;;;19.72;41.14
7182;BME280;3632;42.724;23.298;2024-02-23T13:10:41;94875.66;;;19.69;38.36
7182;BME280;3632;42.724;23.298;2024-02-23T13:13:09;94877.63;;;19.31;38.35
7182;BME280;3632;42.724;23.298;2024-02-23T13:15:36;94878.38;;;19.25;40.03
7182;BME280;3632;42.724;23.298;2024-02-23T13:18:03;94878.81;;;19.43;37.49